createdAt,value
2022-10-02T00:00:00.052Z,0.00
2022-10-02T00:01:00.010Z,0.00
2022-10-02T00:02:00.013Z,0.00
2022-10-02T00:02:59.921Z,0.00
2022-10-02T00:04:00.049Z,0.00
2022-10-02T00:04:59.834Z,0.00
2022-10-02T00:05:59.792Z,0.00
2022-10-02T00:06:59.746Z,0.00
2022-10-02T00:07:59.703Z,0.00
2022-10-02T00:08:59.659Z,0.00
2022-10-02T00:09:59.704Z,0.00
2022-10-02T00:10:59.576Z,0.00
2022-10-02T00:11:59.535Z,0.00
2022-10-02T00:12:59.486Z,0.00
2022-10-02T00:13:59.441Z,0.00
2022-10-02T00:14:59.421Z,0.00
2022-10-02T00:15:59.411Z,0.00
2022-10-02T00:16:59.364Z,0.00
2022-10-02T00:17:59.269Z,0.00
2022-10-02T00:18:59.222Z,0.00
2022-10-02T00:19:59.185Z,0.00
2022-10-02T00:20:59.161Z,0.00
2022-10-02T00:21:59.096Z,0.00
2022-10-02T00:22:59.049Z,0.00
2022-10-02T00:23:59.010Z,0.00
2022-10-02T00:24:58.963Z,0.00
2022-10-02T00:25:58.926Z,0.00
2022-10-02T00:26:58.894Z,0.00
2022-10-02T00:27:58.897Z,0.00
2022-10-02T00:28:58.796Z,0.00
2022-10-02T00:29:58.749Z,0.00
2022-10-02T00:30:58.765Z,0.00
2022-10-02T00:31:58.703Z,0.00
2022-10-02T00:32:58.617Z,0.00
2022-10-02T00:33:58.573Z,0.00
2022-10-02T00:34:58.528Z,0.00
2022-10-02T00:35:58.491Z,0.00
2022-10-02T00:36:58.480Z,0.00
2022-10-02T00:37:58.400Z,0.00
2022-10-02T00:38:58.354Z,0.00
2022-10-02T00:39:58.315Z,0.00
2022-10-02T00:40:58.272Z,0.00
2022-10-02T00:41:58.230Z,0.00
2022-10-02T00:42:58.201Z,0.00
2022-10-02T00:43:58.138Z,0.00
2022-10-02T00:44:58.096Z,0.00
2022-10-02T00:45:58.091Z,0.00
2022-10-02T00:46:58.009Z,0.00
2022-10-02T00:47:57.971Z,0.00
2022-10-02T00:48:57.962Z,0.00
2022-10-02T00:49:57.883Z,0.00
2022-10-02T00:50:57.831Z,0.00
2022-10-02T00:51:57.798Z,0.00
2022-10-02T00:52:57.750Z,0.00
2022-10-02T00:53:57.709Z,0.00
2022-10-02T00:55:07.219Z,0.00
2022-10-02T00:55:57.626Z,0.00
2022-10-02T00:56:57.578Z,0.00
2022-10-02T00:57:57.537Z,0.00
2022-10-02T00:58:57.490Z,0.00
2022-10-02T00:59:57.449Z,0.00
2022-10-02T01:00:57.463Z,0.00
2022-10-02T01:01:57.411Z,0.00
2022-10-02T01:02:57.313Z,0.00
2022-10-02T01:03:57.280Z,0.00
2022-10-02T01:04:57.232Z,0.00
2022-10-02T01:05:57.198Z,0.00
2022-10-02T01:06:57.158Z,0.00
2022-10-02T01:07:57.104Z,0.00
2022-10-02T01:08:57.062Z,0.00
2022-10-02T01:09:57.030Z,0.00
2022-10-02T01:10:56.974Z,0.00
2022-10-02T01:11:56.930Z,0.00
2022-10-02T01:12:56.890Z,0.00
2022-10-02T01:13:56.858Z,0.00
2022-10-02T01:14:56.829Z,0.00
2022-10-02T01:15:56.757Z,0.00
2022-10-02T01:16:56.768Z,0.00
2022-10-02T01:17:56.670Z,0.00
2022-10-02T01:18:56.629Z,0.00
2022-10-02T01:19:56.591Z,0.00
2022-10-02T01:20:56.564Z,0.00
2022-10-02T01:21:56.510Z,0.00
2022-10-02T01:22:56.459Z,0.00
2022-10-02T01:23:56.411Z,0.00
2022-10-02T01:24:56.373Z,0.00
2022-10-02T01:25:56.329Z,0.00
2022-10-02T01:26:56.306Z,0.00
2022-10-02T01:27:56.275Z,0.00
2022-10-02T01:28:56.196Z,0.00
2022-10-02T01:29:56.163Z,0.00
2022-10-02T01:30:56.112Z,0.00
2022-10-02T01:31:56.135Z,0.00
2022-10-02T01:32:56.031Z,0.00
2022-10-02T01:33:55.980Z,0.00
2022-10-02T01:34:55.932Z,0.00
2022-10-02T01:35:55.902Z,0.00
2022-10-02T01:36:55.851Z,0.00
2022-10-02T01:37:55.825Z,0.00
2022-10-02T01:38:55.767Z,0.00
2022-10-02T01:39:55.723Z,0.00
2022-10-02T01:40:55.682Z,0.00
2022-10-02T01:41:55.646Z,0.00
2022-10-02T01:42:55.622Z,0.00
2022-10-02T01:43:55.561Z,0.00
2022-10-02T01:44:55.506Z,0.00
2022-10-02T01:45:55.513Z,0.00
2022-10-02T01:46:55.422Z,0.00
2022-10-02T01:47:55.383Z,0.00
2022-10-02T01:48:55.358Z,0.00
2022-10-02T01:49:55.296Z,0.00
2022-10-02T01:50:55.247Z,0.00
2022-10-02T01:51:55.206Z,0.00
2022-10-02T01:52:55.159Z,0.00
2022-10-02T01:53:55.125Z,0.00
2022-10-02T01:54:55.099Z,0.00
2022-10-02T01:55:55.041Z,0.00
2022-10-02T01:56:54.997Z,0.00
2022-10-02T01:57:54.955Z,0.00
2022-10-02T01:58:54.904Z,0.00
2022-10-02T01:59:54.861Z,0.00
2022-10-02T02:00:54.923Z,0.00
2022-10-02T02:01:54.841Z,0.00
2022-10-02T02:02:54.734Z,0.00
2022-10-02T02:03:54.692Z,0.00
2022-10-02T02:04:54.656Z,0.00
2022-10-02T02:05:54.608Z,0.00
2022-10-02T02:06:54.562Z,0.00
2022-10-02T02:07:54.517Z,0.00
2022-10-02T02:08:57.414Z,0.00
2022-10-02T02:09:54.432Z,0.00
2022-10-02T02:10:54.416Z,0.00
2022-10-02T02:11:54.345Z,0.00
2022-10-02T02:12:54.304Z,0.00
2022-10-02T02:13:54.265Z,0.00
2022-10-02T02:14:54.215Z,0.00
2022-10-02T02:15:54.174Z,0.00
2022-10-02T02:16:54.195Z,0.00
2022-10-02T02:17:54.084Z,0.00
2022-10-02T02:18:54.043Z,0.00
2022-10-02T02:19:54.003Z,0.00
2022-10-02T02:20:53.974Z,0.00
2022-10-02T02:21:53.918Z,0.00
2022-10-02T02:22:53.869Z,0.00
2022-10-02T02:23:53.830Z,0.00
2022-10-02T02:24:53.789Z,0.00
2022-10-02T02:25:53.742Z,0.00
2022-10-02T02:26:53.714Z,0.00
2022-10-02T02:27:53.696Z,0.00
2022-10-02T02:28:53.623Z,0.00
2022-10-02T02:29:53.568Z,0.00
2022-10-02T02:30:53.531Z,0.00
2022-10-02T02:31:53.531Z,0.00
2022-10-02T02:32:53.434Z,0.00
2022-10-02T02:33:53.400Z,0.00
2022-10-02T02:34:53.353Z,0.00
2022-10-02T02:35:53.315Z,0.00
2022-10-02T02:36:53.266Z,0.00
2022-10-02T02:37:53.241Z,0.00
2022-10-02T02:38:53.182Z,0.00
2022-10-02T02:39:53.148Z,0.00
2022-10-02T02:40:53.102Z,0.00
2022-10-02T02:41:53.082Z,0.00
2022-10-02T02:42:53.017Z,0.00
2022-10-02T02:43:52.971Z,0.00
2022-10-02T02:44:52.924Z,0.00
2022-10-02T02:45:52.957Z,0.00
2022-10-02T02:46:52.837Z,0.00
2022-10-02T02:47:52.820Z,0.00
2022-10-02T02:48:52.752Z,0.00
2022-10-02T02:49:52.711Z,0.00
2022-10-02T02:50:52.664Z,0.00
2022-10-02T02:51:52.626Z,0.00
2022-10-02T02:52:52.582Z,0.00
2022-10-02T02:53:52.566Z,0.00
2022-10-02T02:54:52.494Z,0.00
2022-10-02T02:55:52.453Z,0.00
2022-10-02T02:56:52.409Z,0.00
2022-10-02T02:57:52.371Z,0.00
2022-10-02T02:58:52.324Z,0.00
2022-10-02T02:59:52.295Z,0.00
2022-10-02T03:00:52.277Z,0.00
2022-10-02T03:01:52.251Z,0.00
2022-10-02T03:02:52.146Z,0.00
2022-10-02T03:03:52.110Z,0.00
2022-10-02T03:04:52.066Z,0.00
2022-10-02T03:05:52.038Z,0.00
2022-10-02T03:06:51.975Z,0.00
2022-10-02T03:07:51.969Z,0.00
2022-10-02T03:08:51.890Z,0.00
2022-10-02T03:09:51.853Z,0.00
2022-10-02T03:10:51.807Z,0.00
2022-10-02T03:11:51.767Z,0.00
2022-10-02T03:12:51.727Z,0.00
2022-10-02T03:13:51.777Z,0.00
2022-10-02T03:14:51.644Z,0.00
2022-10-02T03:15:51.668Z,0.00
2022-10-02T03:16:51.550Z,0.00
2022-10-02T03:17:51.507Z,0.00
2022-10-02T03:18:51.468Z,0.00
2022-10-02T03:19:51.440Z,0.00
2022-10-02T03:20:51.409Z,0.00
2022-10-02T03:21:51.338Z,0.00
2022-10-02T03:22:51.287Z,0.00
2022-10-02T03:23:51.245Z,0.00
2022-10-02T03:24:51.208Z,0.00
2022-10-02T03:25:51.161Z,0.00
2022-10-02T03:26:51.142Z,0.00
2022-10-02T03:27:51.116Z,0.00
2022-10-02T03:28:56.029Z,0.00
2022-10-02T03:29:50.986Z,0.00
2022-10-02T03:30:50.951Z,0.00
2022-10-02T03:31:50.978Z,0.00
2022-10-02T03:32:50.881Z,0.00
2022-10-02T03:33:50.814Z,0.00
2022-10-02T03:34:50.771Z,0.00
2022-10-02T03:35:50.735Z,0.00
2022-10-02T03:36:50.689Z,0.00
2022-10-02T03:37:50.666Z,0.00
2022-10-02T03:39:06.501Z,0.00
2022-10-02T03:39:50.559Z,0.00
2022-10-02T03:40:50.521Z,0.00
2022-10-02T03:41:50.474Z,0.00
2022-10-02T03:42:50.429Z,0.00
2022-10-02T03:43:50.408Z,0.00
2022-10-02T03:44:50.344Z,0.00
2022-10-02T03:45:51.726Z,0.00
2022-10-02T03:46:50.338Z,0.00
2022-10-02T03:47:50.214Z,0.00
2022-10-02T03:48:50.172Z,0.00
2022-10-02T03:49:50.151Z,0.00
2022-10-02T03:50:50.090Z,0.00
2022-10-02T03:51:50.043Z,0.00
2022-10-02T03:52:50.002Z,0.00
2022-10-02T03:53:49.956Z,0.00
2022-10-02T03:54:49.914Z,0.00
2022-10-02T03:55:50.063Z,0.00
2022-10-02T03:56:49.831Z,0.00
2022-10-02T03:57:49.786Z,0.00
2022-10-02T03:58:49.746Z,0.00
2022-10-02T03:59:49.703Z,0.00
2022-10-02T04:00:49.664Z,0.00
2022-10-02T04:01:49.678Z,0.00
2022-10-02T04:02:49.576Z,0.00
2022-10-02T04:03:49.616Z,0.00
2022-10-02T04:04:49.513Z,0.00
2022-10-02T04:05:49.447Z,0.00
2022-10-02T04:06:49.426Z,0.00
2022-10-02T04:07:52.742Z,0.00
2022-10-02T04:08:49.319Z,0.00
2022-10-02T04:09:49.301Z,0.00
2022-10-02T04:10:49.240Z,0.00
2022-10-02T04:11:49.190Z,0.00
2022-10-02T04:12:49.166Z,0.00
2022-10-02T04:13:49.107Z,0.00
2022-10-02T04:14:49.061Z,0.00
2022-10-02T04:15:49.033Z,0.00
2022-10-02T04:16:48.980Z,0.00
2022-10-02T04:17:48.931Z,0.00
2022-10-02T04:18:48.916Z,0.00
2022-10-02T04:19:48.882Z,0.00
2022-10-02T04:20:48.809Z,0.00
2022-10-02T04:21:48.757Z,0.00
2022-10-02T04:22:48.718Z,0.00
2022-10-02T04:23:48.674Z,0.00
2022-10-02T04:24:48.632Z,0.00
2022-10-02T04:25:48.606Z,0.00
2022-10-02T04:26:48.556Z,0.00
2022-10-02T04:27:48.557Z,0.00
2022-10-02T04:28:48.465Z,0.00
2022-10-02T04:29:48.422Z,0.00
2022-10-02T04:30:48.378Z,0.00
2022-10-02T04:31:48.428Z,0.00
2022-10-02T04:32:48.291Z,0.00
2022-10-02T04:33:48.249Z,0.00
2022-10-02T04:34:48.205Z,0.00
2022-10-02T04:35:48.163Z,0.00
2022-10-02T04:36:48.240Z,0.00
2022-10-02T04:37:48.077Z,0.00
2022-10-02T04:38:48.037Z,0.00
2022-10-02T04:39:47.994Z,0.00
2022-10-02T04:40:47.948Z,0.00
2022-10-02T04:41:47.902Z,0.00
2022-10-02T04:42:47.878Z,0.00
2022-10-02T04:43:47.822Z,0.00
2022-10-02T04:44:47.778Z,0.00
2022-10-02T04:45:47.810Z,0.00
2022-10-02T04:46:47.697Z,0.00
2022-10-02T04:47:47.668Z,0.00
2022-10-02T04:48:47.605Z,0.00
2022-10-02T04:49:47.562Z,0.00
2022-10-02T04:50:47.519Z,0.00
2022-10-02T04:51:47.479Z,0.00
2022-10-02T04:52:47.435Z,0.00
2022-10-02T04:53:47.420Z,0.00
2022-10-02T04:54:47.350Z,0.00
2022-10-02T04:55:47.305Z,0.00
2022-10-02T04:56:47.269Z,0.00
2022-10-02T04:57:47.219Z,0.00
2022-10-02T04:58:47.179Z,4.00
2022-10-02T04:59:47.148Z,4.00
2022-10-02T05:00:47.157Z,0.00
2022-10-02T05:01:47.115Z,4.00
2022-10-02T05:02:47.007Z,0.00
2022-10-02T05:03:46.964Z,4.00
2022-10-02T05:04:46.958Z,8.00
2022-10-02T05:05:46.879Z,4.00
2022-10-02T05:06:46.837Z,4.00
2022-10-02T05:07:46.792Z,8.00
2022-10-02T05:08:46.754Z,8.00
2022-10-02T05:09:46.710Z,12.00
2022-10-02T05:10:46.681Z,16.00
2022-10-02T05:11:46.624Z,20.00
2022-10-02T05:12:46.584Z,20.00
2022-10-02T05:13:46.540Z,24.00
2022-10-02T05:14:46.500Z,28.00
2022-10-02T05:15:46.491Z,36.00
2022-10-02T05:16:46.440Z,40.00
2022-10-02T05:17:46.374Z,52.00
2022-10-02T05:18:46.330Z,60.00
2022-10-02T05:19:46.307Z,76.00
2022-10-02T05:20:46.244Z,80.00
2022-10-02T05:21:46.200Z,108.00
2022-10-02T05:22:46.189Z,124.00
2022-10-02T05:23:46.112Z,144.00
2022-10-02T05:24:46.079Z,216.00
2022-10-02T05:25:46.031Z,216.00
2022-10-02T05:26:45.986Z,212.00
2022-10-02T05:27:46.020Z,232.00
2022-10-02T05:28:45.920Z,272.00
2022-10-02T05:29:45.861Z,312.00
2022-10-02T05:30:45.816Z,264.00
2022-10-02T05:31:45.839Z,328.00
2022-10-02T05:32:45.731Z,360.00
2022-10-02T05:33:48.356Z,332.00
2022-10-02T05:34:45.645Z,364.00
2022-10-02T05:35:45.604Z,400.00
2022-10-02T05:36:45.564Z,380.00
2022-10-02T05:37:45.529Z,420.00
2022-10-02T05:38:45.479Z,468.00
2022-10-02T05:39:45.433Z,500.00
2022-10-02T05:40:45.391Z,560.00
2022-10-02T05:41:45.353Z,472.00
2022-10-02T05:42:45.325Z,624.00
2022-10-02T05:43:45.272Z,636.00
2022-10-02T05:44:45.223Z,704.00
2022-10-02T05:45:45.184Z,712.00
2022-10-02T05:46:45.174Z,756.00
2022-10-02T05:47:45.098Z,788.00
2022-10-02T05:48:45.075Z,840.00
2022-10-02T05:49:45.012Z,736.00
2022-10-02T05:50:44.969Z,788.00
2022-10-02T05:51:44.930Z,1016.00
2022-10-02T05:52:44.885Z,960.00
2022-10-02T05:53:44.842Z,1240.00
2022-10-02T05:54:44.822Z,1232.00
2022-10-02T05:55:44.754Z,1412.00
2022-10-02T05:56:44.711Z,1400.00
2022-10-02T05:57:44.668Z,1584.00
2022-10-02T05:58:44.629Z,1724.00
2022-10-02T05:59:44.585Z,1596.00
2022-10-02T06:03:48.120Z,1900.00
2022-10-02T06:04:47.462Z,1904.00
2022-10-02T06:05:47.860Z,1868.00
2022-10-02T06:06:47.492Z,2140.00
2022-10-02T06:07:47.219Z,2472.00
2022-10-02T06:08:47.467Z,2752.00
2022-10-02T06:09:47.295Z,2888.00
2022-10-02T06:10:47.463Z,2772.00
2022-10-02T06:11:47.176Z,2824.00
2022-10-02T06:12:47.004Z,2868.00
2022-10-02T06:13:46.962Z,2912.00
2022-10-02T06:14:50.540Z,3088.00
2022-10-02T06:15:47.069Z,2696.00
2022-10-02T06:16:47.048Z,3200.00
2022-10-02T06:17:46.796Z,3892.00
2022-10-02T06:18:46.801Z,3708.00
2022-10-02T06:19:46.832Z,4112.00
2022-10-02T06:20:46.664Z,3724.00
2022-10-02T06:21:46.752Z,3584.00
2022-10-02T06:22:46.578Z,3712.00
2022-10-02T06:23:46.660Z,4236.00
2022-10-02T06:24:46.495Z,4868.00
2022-10-02T06:25:46.813Z,5296.00
2022-10-02T06:26:46.403Z,5240.00
2022-10-02T06:27:46.724Z,4560.00
2022-10-02T06:28:46.311Z,4212.00
2022-10-02T06:29:46.500Z,3972.00
2022-10-02T06:30:46.231Z,4712.00
2022-10-02T06:31:46.382Z,5596.00
2022-10-02T06:32:46.145Z,5996.00
2022-10-02T06:33:46.768Z,5616.00
2022-10-02T06:34:48.192Z,5828.00
2022-10-02T06:35:46.016Z,5644.00
2022-10-02T06:36:45.968Z,5240.00
2022-10-02T06:37:46.148Z,5228.00
2022-10-02T06:38:45.883Z,4868.00
2022-10-02T06:39:47.391Z,4248.00
2022-10-02T06:40:45.835Z,3784.00
2022-10-02T06:41:45.762Z,4428.00
2022-10-02T06:42:45.731Z,3908.00
2022-10-02T06:43:45.785Z,3272.00
2022-10-02T06:44:45.634Z,3684.00
2022-10-02T06:45:46.174Z,4084.00
2022-10-02T06:46:49.415Z,4404.00
2022-10-02T06:47:45.499Z,4276.00
2022-10-02T06:48:45.623Z,4304.00
2022-10-02T06:49:45.673Z,4588.00
2022-10-02T06:50:45.623Z,5200.00
2022-10-02T06:51:45.330Z,5496.00
2022-10-02T06:52:45.441Z,6360.00
2022-10-02T06:53:45.244Z,8452.00
2022-10-02T06:54:45.451Z,8700.00
2022-10-02T06:55:45.151Z,8656.00
2022-10-02T06:56:45.264Z,8424.00
2022-10-02T06:57:45.068Z,7992.00
2022-10-02T06:58:45.053Z,9100.00
2022-10-02T06:59:45.032Z,10172.00
2022-10-02T07:00:45.115Z,8672.00
2022-10-02T07:01:44.940Z,7396.00
2022-10-02T07:02:45.108Z,6428.00
2022-10-02T07:03:44.804Z,6256.00
2022-10-02T07:04:44.768Z,6304.00
2022-10-02T07:05:45.126Z,6572.00
2022-10-02T07:06:44.692Z,7220.00
2022-10-02T07:07:44.928Z,8896.00
2022-10-02T07:08:44.647Z,10236.00
2022-10-02T07:09:44.954Z,8608.00
2022-10-02T07:10:44.798Z,9248.00
2022-10-02T07:11:44.753Z,8744.00
2022-10-02T07:12:44.448Z,9040.00
2022-10-02T07:13:44.562Z,6312.00
2022-10-02T07:14:44.345Z,3980.00
2022-10-02T07:15:44.303Z,4520.00
2022-10-02T07:16:44.298Z,4488.00
2022-10-02T07:17:45.193Z,4572.00
2022-10-02T07:18:44.209Z,5492.00
2022-10-02T07:19:44.609Z,6008.00
2022-10-02T07:20:44.118Z,6260.00
2022-10-02T07:21:44.381Z,5540.00
2022-10-02T07:22:45.356Z,5180.00
2022-10-02T07:23:44.123Z,4072.00
2022-10-02T07:24:43.917Z,5036.00
2022-10-02T07:25:44.137Z,4800.00
2022-10-02T07:26:43.835Z,4504.00
2022-10-02T07:27:43.801Z,3820.00
2022-10-02T07:28:43.957Z,3668.00
2022-10-02T07:29:44.012Z,3564.00
2022-10-02T07:30:43.972Z,4380.00
2022-10-02T07:31:43.670Z,4368.00
2022-10-02T07:32:43.792Z,4540.00
2022-10-02T07:33:43.545Z,6904.00
2022-10-02T07:34:43.802Z,9040.00
2022-10-02T07:35:43.475Z,10340.00
2022-10-02T07:36:43.607Z,11888.00
2022-10-02T07:37:43.374Z,11752.00
2022-10-02T07:38:43.538Z,13584.00
2022-10-02T07:39:43.286Z,14972.00
2022-10-02T07:40:43.539Z,13972.00
2022-10-02T07:41:43.392Z,15124.00
2022-10-02T07:42:43.353Z,15628.00
2022-10-02T07:43:43.124Z,11928.00
2022-10-02T07:44:43.079Z,11736.00
2022-10-02T07:45:43.091Z,12928.00
2022-10-02T07:46:43.171Z,16392.00
2022-10-02T07:47:43.224Z,17824.00
2022-10-02T07:48:43.184Z,21568.00
2022-10-02T07:49:42.870Z,20096.00
2022-10-02T07:50:42.834Z,12136.00
2022-10-02T07:51:43.003Z,9124.00
2022-10-02T07:52:42.752Z,7964.00
2022-10-02T07:53:43.018Z,7676.00
2022-10-02T07:54:42.664Z,8276.00
2022-10-02T07:55:42.623Z,11148.00
2022-10-02T07:56:42.579Z,21664.00
2022-10-02T07:57:42.845Z,20800.00
2022-10-02T07:58:42.497Z,17536.00
2022-10-02T07:59:42.498Z,9644.00
2022-10-02T08:00:42.675Z,10756.00
2022-10-02T08:01:42.442Z,10064.00
2022-10-02T08:02:42.453Z,11184.00
2022-10-02T08:03:42.471Z,12648.00
2022-10-02T08:04:42.240Z,12236.00
2022-10-02T08:05:42.224Z,11720.00
2022-10-02T08:06:42.290Z,12984.00
2022-10-02T08:07:42.119Z,14844.00
2022-10-02T08:08:42.307Z,18240.00
2022-10-02T08:09:42.035Z,18912.00
2022-10-02T08:10:42.420Z,16984.00
2022-10-02T08:11:43.293Z,18880.00
2022-10-02T08:12:41.917Z,22848.00
2022-10-02T08:13:41.868Z,23680.00
2022-10-02T08:14:42.039Z,18080.00
2022-10-02T08:15:41.802Z,17600.00
2022-10-02T08:16:42.118Z,17856.00
2022-10-02T08:17:41.695Z,20704.00
2022-10-02T08:18:41.661Z,23616.00
2022-10-02T08:19:41.874Z,19584.00
2022-10-02T08:20:41.582Z,16328.00
2022-10-02T08:21:41.928Z,15076.00
2022-10-02T08:22:41.494Z,13504.00
2022-10-02T08:23:41.606Z,11700.00
2022-10-02T08:24:41.406Z,11156.00
2022-10-02T08:25:41.611Z,11224.00
2022-10-02T08:26:41.626Z,11048.00
2022-10-02T08:27:41.421Z,10952.00
2022-10-02T08:28:41.249Z,11172.00
2022-10-02T08:29:41.201Z,11828.00
2022-10-02T08:30:41.159Z,13104.00
2022-10-02T08:31:41.517Z,14188.00
2022-10-02T08:32:41.112Z,13920.00
2022-10-02T08:33:41.264Z,12868.00
2022-10-02T08:34:40.995Z,11988.00
2022-10-02T08:35:40.954Z,11744.00
2022-10-02T08:36:41.288Z,12320.00
2022-10-02T08:37:40.893Z,12980.00
2022-10-02T08:38:41.086Z,13104.00
2022-10-02T08:39:40.786Z,14044.00
2022-10-02T08:40:40.746Z,12400.00
2022-10-02T08:41:40.698Z,10048.00
2022-10-02T08:42:41.125Z,10936.00
2022-10-02T08:43:40.619Z,11532.00
2022-10-02T08:44:40.723Z,11892.00
2022-10-02T08:45:40.569Z,14512.00
2022-10-02T08:46:40.495Z,16152.00
2022-10-02T08:47:40.451Z,14432.00
2022-10-02T08:48:40.732Z,15660.00
2022-10-02T08:49:40.359Z,20320.00
2022-10-02T08:50:40.465Z,29696.00
2022-10-02T08:51:40.287Z,35008.00
2022-10-02T08:52:40.274Z,21920.00
2022-10-02T08:53:40.481Z,20864.00
2022-10-02T08:54:40.253Z,24576.00
2022-10-02T08:55:40.496Z,22624.00
2022-10-02T08:56:40.069Z,21888.00
2022-10-02T08:57:40.029Z,27040.00
2022-10-02T08:58:40.015Z,32064.00
2022-10-02T08:59:41.450Z,35904.00
2022-10-02T09:00:40.026Z,41760.00
2022-10-02T09:01:40.031Z,36032.00
2022-10-02T09:02:39.870Z,40032.00
2022-10-02T09:03:40.093Z,32032.00
2022-10-02T09:04:40.169Z,25120.00
2022-10-02T09:05:39.706Z,22432.00
2022-10-02T09:06:39.862Z,26432.00
2022-10-02T09:07:39.614Z,23776.00
2022-10-02T09:08:39.878Z,23232.00
2022-10-02T09:09:39.554Z,28608.00
2022-10-02T09:10:39.684Z,35936.00
2022-10-02T09:11:39.450Z,35584.00
2022-10-02T09:12:39.718Z,29632.00
2022-10-02T09:13:39.368Z,22560.00
2022-10-02T09:14:39.330Z,23072.00
2022-10-02T09:15:39.564Z,28736.00
2022-10-02T09:16:39.885Z,41568.00
2022-10-02T09:17:39.207Z,31264.00
2022-10-02T09:18:39.228Z,23296.00
2022-10-02T09:19:39.127Z,25152.00
2022-10-02T09:20:39.093Z,23744.00
2022-10-02T09:21:39.254Z,23552.00
2022-10-02T09:22:39.050Z,28960.00
2022-10-02T09:23:40.189Z,28992.00
2022-10-02T09:24:38.938Z,33856.00
2022-10-02T09:25:38.986Z,34624.00
2022-10-02T09:26:39.166Z,29344.00
2022-10-02T09:27:39.092Z,30656.00
2022-10-02T09:28:38.763Z,23136.00
2022-10-02T09:29:38.910Z,18656.00
2022-10-02T09:30:38.696Z,18720.00
2022-10-02T09:31:38.691Z,19616.00
2022-10-02T09:32:38.602Z,16192.00
2022-10-02T09:33:38.624Z,18880.00
2022-10-02T09:34:38.520Z,20576.00
2022-10-02T09:35:38.646Z,18976.00
2022-10-02T09:36:38.670Z,21760.00
2022-10-02T09:37:38.397Z,20544.00
2022-10-02T09:38:39.215Z,15976.00
2022-10-02T09:39:38.522Z,16448.00
2022-10-02T09:40:38.473Z,16900.00
2022-10-02T09:41:38.277Z,17984.00
2022-10-02T09:42:38.202Z,20960.00
2022-10-02T09:43:38.151Z,14508.00
2022-10-02T09:44:38.306Z,14100.00
2022-10-02T09:45:38.106Z,15164.00
2022-10-02T09:46:38.333Z,20896.00
2022-10-02T09:47:38.156Z,20672.00
2022-10-02T09:48:37.961Z,16864.00
2022-10-02T09:49:38.134Z,12772.00
2022-10-02T09:50:37.895Z,11268.00
2022-10-02T09:51:37.940Z,10152.00
2022-10-02T09:52:42.023Z,8088.00
2022-10-02T09:53:37.946Z,7932.00
2022-10-02T09:54:37.701Z,8908.00
2022-10-02T09:55:37.758Z,10720.00
2022-10-02T09:56:37.978Z,12204.00
2022-10-02T09:57:37.774Z,12664.00
2022-10-02T09:58:37.562Z,11320.00
2022-10-02T09:59:37.489Z,10620.00
2022-10-02T10:00:37.452Z,11264.00
2022-10-02T10:01:37.599Z,10060.00
2022-10-02T10:02:37.413Z,9068.00
2022-10-02T10:03:37.417Z,9672.00
2022-10-02T10:04:54.123Z,10360.00
2022-10-02T10:05:37.244Z,10004.00
2022-10-02T10:06:37.759Z,10800.00
2022-10-02T10:07:37.153Z,13572.00
2022-10-02T10:08:37.238Z,11756.00
2022-10-02T10:09:37.075Z,9168.00
2022-10-02T10:10:37.057Z,9684.00
2022-10-02T10:11:37.193Z,10640.00
2022-10-02T10:12:37.054Z,10600.00
2022-10-02T10:13:36.905Z,11900.00
2022-10-02T10:14:37.068Z,13332.00
2022-10-02T10:15:36.822Z,9540.00
2022-10-02T10:16:36.976Z,10092.00
2022-10-02T10:17:36.742Z,12932.00
2022-10-02T10:18:36.900Z,11832.00
2022-10-02T10:19:36.657Z,13276.00
2022-10-02T10:20:36.723Z,14864.00
2022-10-02T10:21:36.888Z,16604.00
2022-10-02T10:22:36.544Z,20000.00
2022-10-02T10:23:36.531Z,19840.00
2022-10-02T10:24:36.447Z,19296.00
2022-10-02T10:25:36.545Z,20608.00
2022-10-02T10:26:36.365Z,22880.00
2022-10-02T10:27:36.406Z,20128.00
2022-10-02T10:28:36.367Z,20000.00
2022-10-02T10:29:36.368Z,24416.00
2022-10-02T10:30:36.199Z,21952.00
2022-10-02T10:31:36.494Z,17760.00
2022-10-02T10:32:36.118Z,18912.00
2022-10-02T10:33:36.101Z,20512.00
2022-10-02T10:34:36.173Z,18976.00
2022-10-02T10:35:36.237Z,17008.00
2022-10-02T10:36:35.941Z,19904.00
2022-10-02T10:37:36.021Z,20032.00
2022-10-02T10:38:35.869Z,26528.00
2022-10-02T10:39:35.917Z,30208.00
2022-10-02T10:40:35.952Z,22144.00
2022-10-02T10:41:35.970Z,21664.00
2022-10-02T10:42:56.156Z,20832.00
2022-10-02T10:43:35.667Z,19200.00
2022-10-02T10:44:35.612Z,22816.00
2022-10-02T10:45:35.925Z,27136.00
2022-10-02T10:46:35.570Z,25280.00
2022-10-02T10:47:35.487Z,22400.00
2022-10-02T10:48:35.582Z,24704.00
2022-10-02T10:49:35.458Z,33536.00
2022-10-02T10:50:35.455Z,37952.00
2022-10-02T10:51:35.603Z,32992.00
2022-10-02T10:52:35.276Z,34784.00
2022-10-02T10:53:35.349Z,54112.00
2022-10-02T10:54:35.195Z,45184.00
2022-10-02T10:55:35.153Z,54048.00
2022-10-02T10:56:35.285Z,35936.00
2022-10-02T10:57:35.241Z,47712.00
2022-10-02T10:58:35.040Z,25856.00
2022-10-02T10:59:35.050Z,28992.00
2022-10-02T11:00:34.957Z,27200.00
2022-10-02T11:01:35.133Z,33312.00
2022-10-02T11:02:34.936Z,41760.00
2022-10-02T11:03:34.875Z,24288.00
2022-10-02T11:04:34.800Z,24448.00
2022-10-02T11:05:34.886Z,21696.00
2022-10-02T11:06:34.717Z,16572.00
2022-10-02T11:07:34.663Z,16512.00
2022-10-02T11:08:34.667Z,17632.00
2022-10-02T11:09:34.719Z,18016.00
2022-10-02T11:10:34.588Z,32096.00
2022-10-02T11:11:35.053Z,30656.00
2022-10-02T11:12:34.534Z,31712.00
2022-10-02T11:13:34.425Z,40736.00
2022-10-02T11:14:34.749Z,30848.00
2022-10-02T11:15:34.342Z,23296.00
2022-10-02T11:16:34.404Z,14508.00
2022-10-02T11:17:34.264Z,13476.00
2022-10-02T11:18:34.259Z,11696.00
2022-10-02T11:19:34.199Z,18080.00
2022-10-02T11:20:34.454Z,23360.00
2022-10-02T11:21:34.371Z,23104.00
2022-10-02T11:22:34.199Z,29984.00
2022-10-02T11:23:34.025Z,35168.00
2022-10-02T11:24:34.283Z,42784.00
2022-10-02T11:25:33.942Z,121024.00
2022-10-02T11:26:33.928Z,44928.00
2022-10-02T11:27:34.029Z,60096.00
2022-10-02T11:28:33.827Z,59424.00
2022-10-02T11:29:33.783Z,47744.00
2022-10-02T11:30:36.106Z,36448.00
2022-10-02T11:31:33.963Z,57344.00
2022-10-02T11:32:33.709Z,83008.00
2022-10-02T11:33:33.863Z,91488.00
2022-10-02T11:34:33.590Z,76064.00
2022-10-02T11:35:33.553Z,58144.00
2022-10-02T11:36:33.682Z,50592.00
2022-10-02T11:37:33.470Z,59232.00
2022-10-02T11:38:33.799Z,34144.00
2022-10-02T11:39:33.399Z,29856.00
2022-10-02T11:40:33.357Z,26560.00
2022-10-02T11:41:33.362Z,56192.00
2022-10-02T11:42:33.531Z,60384.00
2022-10-02T11:43:33.242Z,51136.00
2022-10-02T11:44:33.335Z,33920.00
2022-10-02T11:45:33.224Z,111104.00
2022-10-02T11:46:33.143Z,46336.00
2022-10-02T11:47:33.154Z,42688.00
2022-10-02T11:48:33.057Z,34080.00
2022-10-02T11:49:33.163Z,34592.00
2022-10-02T11:50:33.018Z,46176.00
2022-10-02T11:51:33.202Z,25824.00
2022-10-02T11:52:32.907Z,52640.00
2022-10-02T11:53:32.990Z,94336.00
2022-10-02T11:54:32.832Z,44224.00
2022-10-02T11:55:33.027Z,38144.00
2022-10-02T11:56:33.891Z,23776.00
2022-10-02T11:57:32.751Z,14640.00
2022-10-02T11:58:32.688Z,15088.00
2022-10-02T11:59:32.871Z,17260.00
2022-10-02T12:00:32.625Z,16520.00
2022-10-02T12:01:32.639Z,13464.00
2022-10-02T12:02:32.670Z,13888.00
2022-10-02T12:03:32.779Z,12196.00
2022-10-02T12:04:32.488Z,12796.00
2022-10-02T12:05:32.661Z,13356.00
2022-10-02T12:06:32.388Z,17024.00
2022-10-02T12:07:32.473Z,16764.00
2022-10-02T12:08:32.315Z,14500.00
2022-10-02T12:09:32.355Z,17952.00
2022-10-02T12:10:32.298Z,22048.00
2022-10-02T12:11:32.226Z,32736.00
2022-10-02T12:12:32.308Z,43200.00
2022-10-02T12:13:32.124Z,83648.00
2022-10-02T12:14:32.080Z,83168.00
2022-10-02T12:15:32.174Z,64928.00
2022-10-02T12:16:32.089Z,30592.00
2022-10-02T12:17:31.962Z,25472.00
2022-10-02T12:18:32.042Z,30496.00
2022-10-02T12:19:31.912Z,108768.00
2022-10-02T12:20:31.855Z,64800.00
2022-10-02T12:21:31.811Z,142496.00
2022-10-02T12:22:31.865Z,105696.00
2022-10-02T12:23:31.738Z,102880.00
2022-10-02T12:24:31.882Z,96864.00
2022-10-02T12:25:32.971Z,54272.00
2022-10-02T12:26:31.630Z,112736.00
2022-10-02T12:27:31.707Z,126304.00
2022-10-02T12:28:31.644Z,41984.00